地図

経路データ

SID SEASON NUMBER BASIN SUBBASIN NAME ISO_TIME NATURE LAT LON WMO_WIND WMO_PRES WMO_AGENCY TRACK_TYPE DIST2LAND LANDFALL IFLAG USA_AGENCY USA_ATCF_ID USA_LAT USA_LON USA_RECORD USA_STATUS USA_WIND USA_PRES USA_SSHS USA_R34_NE USA_R34_SE USA_R34_SW USA_R34_NW USA_R50_NE USA_R50_SE USA_R50_SW USA_R50_NW USA_R64_NE USA_R64_SE USA_R64_SW USA_R64_NW USA_POCI USA_ROCI USA_RMW USA_EYE TOKYO_LAT TOKYO_LON TOKYO_GRADE TOKYO_WIND TOKYO_PRES TOKYO_R50_DIR TOKYO_R50_LONG TOKYO_R50_SHORT TOKYO_R30_DIR TOKYO_R30_LONG TOKYO_R30_SHORT TOKYO_LAND CMA_LAT CMA_LON CMA_CAT CMA_WIND CMA_PRES HKO_LAT HKO_LON HKO_CAT HKO_WIND HKO_PRES NEWDELHI_LAT NEWDELHI_LON NEWDELHI_GRADE NEWDELHI_WIND NEWDELHI_PRES NEWDELHI_CI NEWDELHI_DP NEWDELHI_POCI REUNION_LAT REUNION_LON REUNION_TYPE REUNION_WIND REUNION_PRES REUNION_TNUM REUNION_CI REUNION_RMW REUNION_R34_NE REUNION_R34_SE REUNION_R34_SW REUNION_R34_NW REUNION_R50_NE REUNION_R50_SE REUNION_R50_SW REUNION_R50_NW REUNION_R64_NE REUNION_R64_SE REUNION_R64_SW REUNION_R64_NW BOM_LAT BOM_LON BOM_TYPE BOM_WIND BOM_PRES BOM_TNUM BOM_CI BOM_RMW BOM_R34_NE BOM_R34_SE BOM_R34_SW BOM_R34_NW BOM_R50_NE BOM_R50_SE BOM_R50_SW BOM_R50_NW BOM_R64_NE BOM_R64_SE BOM_R64_SW BOM_R64_NW BOM_ROCI BOM_POCI BOM_EYE BOM_POS_METHOD BOM_PRES_METHOD NADI_LAT NADI_LON NADI_CAT NADI_WIND NADI_PRES WELLINGTON_LAT WELLINGTON_LON WELLINGTON_WIND WELLINGTON_PRES DS824_LAT DS824_LON DS824_STAGE DS824_WIND DS824_PRES TD9636_LAT TD9636_LON TD9636_STAGE TD9636_WIND TD9636_PRES TD9635_LAT TD9635_LON TD9635_WIND TD9635_PRES TD9635_ROCI NEUMANN_LAT NEUMANN_LON NEUMANN_CLASS NEUMANN_WIND NEUMANN_PRES MLC_LAT MLC_LON MLC_CLASS MLC_WIND MLC_PRES USA_GUST BOM_GUST BOM_GUST_PER REUNION_GUST REUNION_GUST_PER USA_SEAHGT USA_SEARAD_NE USA_SEARAD_SE USA_SEARAD_SW USA_SEARAD_NW STORM_SPEED STORM_DIR
1967281N18089 1967 118 NI BB NOT_NAMED 1967-10-07 18:00:00 TS 18.3000 89.3000 main 352 352 O________O____ jtwc_io IO131967 18.3000 89.3000 -1 18.3000 89.3000 TC 1 306
1967281N18089 1967 118 NI BB NOT_NAMED 1967-10-07 21:00:00 TS 18.3325 89.2500 main 352 329 P________P____ IO131967 18.3325 89.2500 -1 18.3325 89.2500 TC 2 298
1967281N18089 1967 118 NI BB NOT_NAMED 1967-10-08 00:00:00 TS 18.4000 89.1000 main 329 298 O________O____ jtwc_io IO131967 18.4000 89.1000 -1 18.4000 89.1000 TC 25 5 293
1967281N18089 1967 118 NI BB NOT_NAMED 1967-10-08 03:00:00 TS 18.5244 88.7777 main 298 245 P________PO___ IO131967 18.5274 88.7749 -1 18.5274 88.7749 TC 30 18.5000 88.8000 1 8 291
1967281N18089 1967 118 NI BB NOT_NAMED 1967-10-08 06:00:00 TS 18.7017 88.2787 main 245 183 O________OP___ jtwc_io IO131967 18.7000 88.3000 -1 18.7000 88.3000 TC 35 18.7083 88.1936 1 11 290
1967281N18089 1967 118 NI BB NOT_NAMED 1967-10-08 09:00:00 TS 18.8982 87.6671 main 183 124 P________PP___ IO131967 18.8929 87.6852 -1 18.8929 87.6852 TC 35 18.9124 87.6190 1 12 290
1967281N18089 1967 118 NI BB NOT_NAMED 1967-10-08 12:00:00 TS 19.1034 87.1033 main 124 84 O________OP___ jtwc_io IO131967 19.1000 87.1000 -1 19.1000 87.1000 TC 35 19.1102 87.1099 1 10 294
1967281N18089 1967 118 NI BB NOT_NAMED 1967-10-08 15:00:00 TS 19.3048 86.7216 main 84 56 P________PO___ IO131967 19.3072 86.7324 -1 19.3072 86.7324 TC 35 19.3000 86.7000 3 7 303
1967281N18089 1967 118 NI BB NOT_NAMED 1967-10-08 18:00:00 TS 19.4938 86.4716 main 56 39 O________OP___ jtwc_io IO131967 19.5000 86.5000 -1 19.5000 86.5000 TC 35 19.4813 86.4149 3 5 310
1967281N18089 1967 118 NI BB NOT_NAMED 1967-10-08 21:00:00 TS 19.6521 86.2807 main 30 15 P________PP___ IO131967 19.6499 86.2975 -1 19.6499 86.2975 TC 50 19.6564 86.2471 3 4 320
1967281N18089 1967 118 NI BB NOT_NAMED 1967-10-09 00:00:00 TS 19.8095 86.1936 main 15 0 O________OP___ jtwc_io IO131967 19.8000 86.2000 -1 19.8000 86.2000 TC 65 19.8284 86.1808 3 4 349
1967281N18089 1967 118 NI BB NOT_NAMED 1967-10-09 03:00:00 TS 20.0000 86.2033 main 0 0 P________PO___ IO131967 20.0000 86.2050 -1 20.0000 86.2050 TC 65 20.0000 86.2000 4 4 11
1967281N18089 1967 118 NI BB NOT_NAMED 1967-10-09 06:00:00 TS 20.1957 86.2808 main 0 0 O________OP___ jtwc_io IO131967 20.2000 86.3000 -1 20.2000 86.3000 TC 65 20.1870 86.2423 4 4 27
1967281N18089 1967 118 NI BB NOT_NAMED 1967-10-09 09:00:00 TS 20.3624 86.4016 main 0 0 P________PP___ IO131967 20.3575 86.4200 -1 20.3575 86.4200 TC 65 20.3722 86.3647 4 4 42
1967281N18089 1967 118 NI BB NOT_NAMED 1967-10-09 12:00:00 TS 20.5154 86.5850 main 0 0 O________OP___ jtwc_io IO131967 20.5000 86.6000 -1 20.5000 86.6000 TC 65 20.5463 86.5548 4 5 52
1967281N18089 1967 118 NI BB NOT_NAMED 1967-10-09 15:00:00 TS 20.6717 86.8183 main 0 0 P________PO___ IO131967 20.6575 86.8275 -1 20.6575 86.8275 TC 65 20.7000 86.8000 4 6 59
1967281N18089 1967 118 NI BB NOT_NAMED 1967-10-09 18:00:00 TS 20.8031 87.0876 main 10 10 O________OP___ jtwc_io IO131967 20.8000 87.1000 -1 20.8000 87.1000 TC 65 20.8094 87.0629 4 6 66
1967281N18089 1967 118 NI BB NOT_NAMED 1967-10-09 21:00:00 TS 20.9049 87.3769 main 43 43 P________PP___ IO131967 20.9074 87.3776 -1 20.9074 87.3776 TC 65 20.9000 87.3756 4 6 72
1967281N18089 1967 118 NI BB NOT_NAMED 1967-10-10 00:00:00 TS 20.9968 87.7085 main 73 56 O________OP___ jtwc_io IO131967 21.0000 87.7000 -1 21.0000 87.7000 TC 65 20.9905 87.7255 4 7 74
1967281N18089 1967 118 NI BB NOT_NAMED 1967-10-10 03:00:00 TS 21.0900 88.0901 main 56 44 P________PO___ IO131967 21.0850 88.0852 -1 21.0850 88.0852 TC 65 21.1000 88.1000 4 8 74
1967281N18089 1967 118 NI BB NOT_NAMED 1967-10-10 06:00:00 TS 21.2138 88.4942 main 44 22 O________OP___ jtwc_io IO131967 21.2000 88.5000 -1 21.2000 88.5000 TC 65 21.2413 88.4826 4 8 68
1967281N18089 1967 118 NI BB NOT_NAMED 1967-10-10 09:00:00 TS 21.3916 88.8951 main 22 10 P________PP___ IO131967 21.3849 88.9000 -1 21.3849 88.9000 TC 65 21.4050 88.8852 4 8 63
1967281N18089 1967 118 NI BB NOT_NAMED 1967-10-10 12:00:00 TS 21.5971 89.2984 main 15 0 O________OP___ jtwc_io IO131967 21.6000 89.3000 -1 21.6000 89.3000 TC 65 21.5912 89.2952 4 9 62
1967281N18089 1967 118 NI BB NOT_NAMED 1967-10-10 15:00:00 TS 21.7950 89.7051 main 0 0 P________PO___ IO131967 21.7925 89.7076 -1 21.7925 89.7076 TC 50 21.8000 89.7000 4 9 61
1967281N18089 1967 118 NI BB NOT_NAMED 1967-10-10 18:00:00 TS 22.0122 90.0959 main 0 0 O________OP___ jtwc_io IO131967 22.0000 90.1000 -1 22.0000 90.1000 TC 35 22.0305 90.0897 4 8 57
1967281N18089 1967 118 NI BB NOT_NAMED 1967-10-10 21:00:00 TS 22.2563 90.4626 main 0 0 P________PP___ IO131967 22.2401 90.4597 -1 22.2401 90.4597 TC 30 22.2779 90.4664 4 8 53
1967281N18089 1967 118 NI BB NOT_NAMED 1967-10-11 00:00:00 TS 22.5182 90.8175 main 0 0 O________OP___ jtwc_io IO131967 22.5000 90.8000 -1 22.5000 90.8000 TC 25 22.5364 90.8349 4 9 51
1967281N18089 1967 118 NI BB NOT_NAMED 1967-10-11 03:00:00 NR 22.8000 91.2000 main 0 __________O___ IO131967 -1 TC 22.8000 91.2000 1 9 51

IBTrACS Databaseについて

本データベースは、米国NOAAが公開する1842年以降の世界の熱帯低気圧のベストトラックデータアーカイブInternational Best Track Archive for Climate Stewardship (IBTrACS)を、ウェブで閲覧しやすい形式に変換したものです。

最終更新日:2021-11-26